Time;durP1;ratioP1;P1;durP2;ratioP2;P2;SDS_P1;SDS_P2;PMS_P1;PMS_P2;Temp;Humidity;BMP_temperature;BMP_pressure;BME280_temperature;BME280_humidity;BME280_pressure;Samples;Min_cycle;Max_cycle;Signal;HPM_P1;HPM_P2
2023/07/19 00:00:44;;;;;;;12.15;8.05;;;;;;;;;;9961883;28;20505;-45
2023/07/19 00:05:36;;;;;;;13.02;8.65;;;;;;;;;;9983126;28;20046;-48
2023/07/19 00:10:28;;;;;;;12.85;7.78;;;;;;;;;;9975048;28;20090;-46
2023/07/19 00:15:19;;;;;;;8.30;7.40;;;;;;;;;;9979201;28;20133;-48
2023/07/19 00:20:12;;;;;;;11.25;8.13;;;;;;;;;;9982717;28;20058;-49
2023/07/19 00:25:04;;;;;;;8.43;7.13;;;;;;;;;;9953373;28;20053;-45
2023/07/19 00:29:56;;;;;;;12.13;8.07;;;;;;;;;;9981363;28;20129;-46
2023/07/19 00:34:48;;;;;;;10.65;7.93;;;;;;;;;;9983427;28;20101;-47
2023/07/19 00:39:41;;;;;;;9.02;7.22;;;;;;;;;;9978397;28;20034;-48
2023/07/19 00:44:33;;;;;;;8.73;7.32;;;;;;;;;;10001208;28;20050;-47
2023/07/19 00:49:25;;;;;;;11.88;7.43;;;;;;;;;;9984076;28;20167;-49
2023/07/19 00:54:17;;;;;;;9.52;8.52;;;;;;;;;;9985373;28;20089;-48
2023/07/19 00:59:12;;;;;;;10.20;7.30;;;;;;;;;;9973121;28;20141;-48
2023/07/19 01:04:04;;;;;;;12.48;7.60;;;;;;;;;;9982825;28;20042;-47
2023/07/19 01:08:56;;;;;;;9.60;6.45;;;;;;;;;;9983398;28;20142;-46
2023/07/19 01:13:52;;;;;;;7.75;6.80;;;;;;;;;;9982814;28;20046;-49
2023/07/19 01:18:44;;;;;;;10.30;6.80;;;;;;;;;;9979404;28;20173;-47
2023/07/19 01:23:36;;;;;;;13.13;8.48;;;;;;;;;;9979983;28;20696;-47
2023/07/19 01:28:28;;;;;;;12.75;7.20;;;;;;;;;;9980781;28;20046;-48
2023/07/19 01:33:20;;;;;;;9.02;7.10;;;;;;;;;;9981973;28;20035;-46
2023/07/19 01:38:24;;;;;;;9.77;7.97;;;;;;;;;;9983312;28;20050;-49
2023/07/19 01:43:16;;;;;;;8.50;6.70;;;;;;;;;;9987574;28;20064;-48
2023/07/19 01:48:08;;;;;;;9.18;7.88;;;;;;;;;;9991039;28;20039;-47
2023/07/19 01:53:01;;;;;;;7.70;6.90;;;;;;;;;;9988007;28;20042;-47
2023/07/19 01:57:53;;;;;;;10.45;7.00;;;;;;;;;;9990696;28;20050;-48
2023/07/19 02:02:44;;;;;;;8.02;6.53;;;;;;;;;;9989955;28;20046;-46
2023/07/19 02:07:36;;;;;;;8.23;6.50;;;;;;;;;;9990888;28;20535;-47
2023/07/19 02:12:29;;;;;;;10.38;8.27;;;;;;;;;;9987669;28;20443;-46
2023/07/19 02:17:21;;;;;;;9.15;6.75;;;;;;;;;;9971629;28;20084;-48
2023/07/19 02:22:15;;;;;;;7.35;6.03;;;;;;;;;;9988561;28;20126;-49
2023/07/19 02:27:07;;;;;;;9.15;7.20;;;;;;;;;;9988863;28;20046;-47
2023/07/19 02:31:59;;;;;;;9.65;6.50;;;;;;;;;;9987802;28;20423;-46
2023/07/19 02:36:51;;;;;;;8.35;6.47;;;;;;;;;;9988481;28;20387;-48
2023/07/19 02:41:43;;;;;;;9.30;6.80;;;;;;;;;;9988464;28;20050;-47
2023/07/19 02:46:35;;;;;;;8.23;6.47;;;;;;;;;;9970078;28;20054;-48
2023/07/19 02:51:27;;;;;;;11.98;7.65;;;;;;;;;;9984772;28;20049;-46
2023/07/19 02:56:19;;;;;;;6.88;6.25;;;;;;;;;;9987100;28;20042;-48
2023/07/19 03:01:14;;;;;;;7.20;6.03;;;;;;;;;;9987254;28;20119;-44
2023/07/19 03:06:06;;;;;;;8.23;6.88;;;;;;;;;;9987419;28;20534;-47
2023/07/19 03:10:58;;;;;;;7.28;6.35;;;;;;;;;;9984373;28;20644;-48
2023/07/19 03:15:49;;;;;;;6.78;5.93;;;;;;;;;;9986506;28;20051;-48
2023/07/19 03:20:41;;;;;;;8.07;6.78;;;;;;;;;;9969733;28;20050;-48
2023/07/19 03:25:33;;;;;;;8.40;6.35;;;;;;;;;;9985008;28;20465;-47
2023/07/19 03:30:25;;;;;;;7.70;5.93;;;;;;;;;;9963124;28;20149;-45
2023/07/19 03:35:18;;;;;;;7.40;6.70;;;;;;;;;;9975088;28;20050;-47
2023/07/19 03:40:13;;;;;;;7.00;6.30;;;;;;;;;;9985848;28;20392;-45
2023/07/19 03:45:07;;;;;;;6.55;5.95;;;;;;;;;;9968881;28;20052;-48
2023/07/19 03:50:00;;;;;;;6.88;6.18;;;;;;;;;;9986488;28;20479;-46
2023/07/19 03:54:54;;;;;;;7.38;6.35;;;;;;;;;;9983070;28;20082;-51
2023/07/19 03:59:48;;;;;;;7.32;6.07;;;;;;;;;;9985984;28;20066;-48
2023/07/19 04:04:40;;;;;;;7.47;6.07;;;;;;;;;;9966275;28;20052;-47
2023/07/19 04:09:32;;;;;;;7.75;5.90;;;;;;;;;;9982853;28;20043;-46
2023/07/19 04:14:24;;;;;;;7.18;6.47;;;;;;;;;;9982907;28;20042;-46
2023/07/19 04:19:16;;;;;;;7.15;6.47;;;;;;;;;;9984354;28;20442;-50
2023/07/19 04:24:08;;;;;;;6.40;5.80;;;;;;;;;;9982578;28;20436;-53
2023/07/19 04:29:00;;;;;;;6.68;5.95;;;;;;;;;;9967806;28;20053;-48
2023/07/19 04:33:52;;;;;;;8.77;6.07;;;;;;;;;;9966964;28;20137;-48
2023/07/19 04:38:45;;;;;;;7.85;5.68;;;;;;;;;;9984117;28;20539;-47
2023/07/19 04:43:37;;;;;;;6.60;6.00;;;;;;;;;;9966927;28;20104;-48
2023/07/19 04:48:31;;;;;;;6.10;5.60;;;;;;;;;;9983896;28;20065;-46
2023/07/19 04:53:25;;;;;;;6.78;6.05;;;;;;;;;;9982383;28;20091;-48
2023/07/19 04:58:20;;;;;;;5.80;5.20;;;;;;;;;;9968586;28;20053;-48
2023/07/19 05:03:12;;;;;;;7.15;5.85;;;;;;;;;;9986343;28;20049;-46
2023/07/19 05:08:06;;;;;;;6.60;5.60;;;;;;;;;;9969137;28;20133;-48
2023/07/19 05:12:58;;;;;;;6.00;5.40;;;;;;;;;;9963574;28;20081;-48
2023/07/19 05:17:50;;;;;;;7.57;6.03;;;;;;;;;;9971178;28;20104;-48
2023/07/19 05:22:42;;;;;;;7.28;5.78;;;;;;;;;;9989360;28;20421;-49
2023/07/19 05:27:35;;;;;;;8.55;5.45;;;;;;;;;;9990012;28;20046;-45
2023/07/19 05:32:27;;;;;;;7.50;6.80;;;;;;;;;;9992247;28;20042;-48
2023/07/19 05:37:19;;;;;;;6.95;6.20;;;;;;;;;;9990035;28;20061;-44
2023/07/19 05:42:11;;;;;;;11.27;5.60;;;;;;;;;;9989518;28;20042;-47
2023/07/19 05:47:03;;;;;;;8.07;5.72;;;;;;;;;;9989970;28;20070;-46
2023/07/19 05:51:55;;;;;;;6.68;6.07;;;;;;;;;;9990039;28;20524;-49
2023/07/19 05:56:47;;;;;;;6.45;5.85;;;;;;;;;;9989892;28;20046;-47
2023/07/19 06:01:39;;;;;;;6.20;5.60;;;;;;;;;;9988507;28;20042;-44
2023/07/19 06:06:33;;;;;;;8.32;5.75;;;;;;;;;;9989897;28;20129;-48
2023/07/19 06:11:25;;;;;;;7.93;7.13;;;;;;;;;;9961296;28;20083;-47
2023/07/19 06:16:17;;;;;;;7.22;6.53;;;;;;;;;;9975501;28;20042;-49
2023/07/19 06:21:09;;;;;;;8.23;7.00;;;;;;;;;;10001108;28;20081;-47
2023/07/19 06:26:01;;;;;;;6.55;5.93;;;;;;;;;;9989030;28;21152;-46
2023/07/19 06:31:00;;;;;;;6.13;5.38;;;;;;;;;;9980940;28;20037;-48
2023/07/19 06:35:51;;;;;;;6.72;6.13;;;;;;;;;;10014482;28;20129;-47
2023/07/19 06:40:43;;;;;;;7.18;6.47;;;;;;;;;;9984516;28;20153;-48
2023/07/19 06:45:35;;;;;;;8.30;7.45;;;;;;;;;;9986142;28;20050;-47
2023/07/19 06:50:27;;;;;;;8.50;6.80;;;;;;;;;;9987271;28;20117;-45
2023/07/19 06:55:19;;;;;;;14.68;10.05;;;;;;;;;;9985752;28;20046;-46
2023/07/19 07:00:11;;;;;;;9.85;7.78;;;;;;;;;;9988183;28;20046;-50
2023/07/19 07:05:04;;;;;;;8.23;6.40;;;;;;;;;;9987902;28;20042;-46
2023/07/19 07:09:57;;;;;;;8.30;7.50;;;;;;;;;;9986200;28;20054;-48
2023/07/19 07:14:49;;;;;;;8.63;7.32;;;;;;;;;;9986947;28;20421;-46
2023/07/19 07:19:41;;;;;;;8.95;7.13;;;;;;;;;;9986770;28;20153;-48
2023/07/19 07:24:34;;;;;;;6.82;6.13;;;;;;;;;;9985948;28;20089;-44
2023/07/19 07:29:26;;;;;;;7.13;6.22;;;;;;;;;;9986519;28;20125;-50
2023/07/19 07:34:18;;;;;;;7.93;7.13;;;;;;;;;;9985869;28;20112;-49
2023/07/19 07:39:11;;;;;;;8.30;7.07;;;;;;;;;;9986763;28;20042;-49
2023/07/19 07:44:03;;;;;;;6.75;6.03;;;;;;;;;;9985799;28;20046;-49
2023/07/19 07:48:59;;;;;;;8.38;6.90;;;;;;;;;;9986809;28;20428;-45
2023/07/19 07:53:51;;;;;;;6.80;6.20;;;;;;;;;;9986238;28;20059;-45
2023/07/19 07:58:43;;;;;;;8.23;7.05;;;;;;;;;;9987792;28;20085;-49
2023/07/19 08:03:34;;;;;;;7.10;6.40;;;;;;;;;;9983776;28;20053;-47
2023/07/19 08:08:26;;;;;;;7.55;6.70;;;;;;;;;;9984565;28;20042;-48
2023/07/19 08:13:18;;;;;;;7.55;6.55;;;;;;;;;;9982444;28;20046;-44
2023/07/19 08:18:10;;;;;;;6.43;5.82;;;;;;;;;;9985016;28;20046;-47
2023/07/19 08:23:02;;;;;;;6.78;6.05;;;;;;;;;;9985996;28;20050;-43
2023/07/19 08:27:54;;;;;;;7.25;6.55;;;;;;;;;;9986779;28;20093;-50
2023/07/19 08:32:47;;;;;;;7.65;6.05;;;;;;;;;;9985124;28;20514;-48
2023/07/19 08:37:39;;;;;;;7.47;5.88;;;;;;;;;;9984856;28;20473;-50
2023/07/19 08:42:31;;;;;;;7.00;5.95;;;;;;;;;;9969101;28;20380;-47
2023/07/19 08:47:24;;;;;;;6.63;6.13;;;;;;;;;;9985045;28;20042;-49
2023/07/19 08:52:16;;;;;;;8.57;6.20;;;;;;;;;;9990233;28;20042;-48
2023/07/19 08:57:08;;;;;;;6.80;6.18;;;;;;;;;;9974772;28;20050;-48
2023/07/19 09:02:00;;;;;;;7.43;6.53;;;;;;;;;;9990299;28;20465;-51
2023/07/19 09:06:52;;;;;;;9.55;7.40;;;;;;;;;;9992320;28;20141;-46
2023/07/19 09:11:50;;;;;;;7.90;6.57;;;;;;;;;;9992075;28;20054;-44
2023/07/19 09:16:45;;;;;;;6.85;6.22;;;;;;;;;;9990748;28;20376;-48
2023/07/19 09:21:39;;;;;;;7.68;6.30;;;;;;;;;;9990114;28;20042;-46
2023/07/19 09:26:53;;;;;;;7.60;6.80;;;;;;;;;;9990082;28;20053;-45
2023/07/19 09:32:01;;;;;;;6.57;5.97;;;;;;;;;;9989881;28;20042;-48
2023/07/19 09:36:53;;;;;;;7.40;6.65;;;;;;;;;;9989537;28;20077;-47
2023/07/19 09:41:45;;;;;;;6.65;6.05;;;;;;;;;;9991062;28;20189;-46
2023/07/19 09:46:37;;;;;;;5.97;5.38;;;;;;;;;;9991686;28;20042;-46
2023/07/19 09:51:30;;;;;;;6.80;5.55;;;;;;;;;;9971165;28;20126;-48
2023/07/19 09:56:22;;;;;;;6.38;5.78;;;;;;;;;;9973439;28;20105;-45
2023/07/19 10:01:14;;;;;;;6.45;5.78;;;;;;;;;;9989121;28;20042;-47
2023/07/19 10:06:06;;;;;;;6.63;6.03;;;;;;;;;;9971621;28;20086;-48
2023/07/19 10:11:00;;;;;;;6.38;5.82;;;;;;;;;;9987850;28;20508;-50
2023/07/19 10:15:53;;;;;;;6.82;6.20;;;;;;;;;;9989620;28;20069;-46
2023/07/19 10:21:02;;;;;;;6.45;5.85;;;;;;;;;;9988108;28;20062;-46
2023/07/19 10:25:54;;;;;;;6.70;6.10;;;;;;;;;;9989147;28;20054;-48
2023/07/19 10:30:51;;;;;;;6.78;6.18;;;;;;;;;;9989801;28;20054;-47
2023/07/19 10:35:43;;;;;;;6.63;6.03;;;;;;;;;;9988389;28;20664;-47
2023/07/19 10:40:35;;;;;;;6.70;6.05;;;;;;;;;;9987375;28;20308;-47
2023/07/19 10:45:29;;;;;;;7.00;6.30;;;;;;;;;;9988492;28;20073;-48
2023/07/19 10:50:24;;;;;;;6.30;5.68;;;;;;;;;;9986732;28;20538;-49
2023/07/19 10:55:16;;;;;;;6.97;5.72;;;;;;;;;;9987587;28;20476;-49
2023/07/19 11:00:14;;;;;;;6.72;6.13;;;;;;;;;;9987888;28;20050;-46
2023/07/19 11:05:09;;;;;;;6.82;6.22;;;;;;;;;;9989600;28;20547;-45
2023/07/19 11:10:02;;;;;;;7.10;6.40;;;;;;;;;;9987613;28;20047;-47
2023/07/19 11:14:58;;;;;;;6.55;5.85;;;;;;;;;;9987209;28;20046;-44
2023/07/19 11:19:50;;;;;;;9.68;7.32;;;;;;;;;;9988936;28;20068;-46
2023/07/19 11:24:45;;;;;;;6.80;6.18;;;;;;;;;;9986410;28;20416;-44
2023/07/19 11:29:40;;;;;;;;;;;;;;;;;;9987516;28;20053;-44
2023/07/19 11:34:48;;;;;;;7.03;6.30;;;;;;;;;;9985759;28;19922;-49
2023/07/19 11:39:40;;;;;;;6.25;5.68;;;;;;;;;;9987187;28;20137;-46
2023/07/19 11:44:42;;;;;;;6.18;5.57;;;;;;;;;;9983570;28;20077;-50
2023/07/19 11:49:33;;;;;;;6.60;6.00;;;;;;;;;;9985173;28;20465;-46
2023/07/19 11:54:25;;;;;;;7.50;6.30;;;;;;;;;;9985679;28;20077;-48
2023/07/19 11:59:19;;;;;;;7.55;5.68;;;;;;;;;;9986079;28;20472;-49
2023/07/19 12:04:11;;;;;;;6.82;5.60;;;;;;;;;;9985871;28;20046;-47
2023/07/19 12:09:03;;;;;;;6.57;5.97;;;;;;;;;;9984696;28;20051;-47
2023/07/19 12:13:58;;;;;;;9.13;5.53;;;;;;;;;;9984778;28;20066;-46
2023/07/19 12:18:50;;;;;;;7.25;6.07;;;;;;;;;;9984005;28;20057;-43
2023/07/19 12:23:42;;;;;;;5.95;5.40;;;;;;;;;;9984907;28;20039;-47
2023/07/19 12:28:49;;;;;;;7.13;6.25;;;;;;;;;;9986091;28;20065;-46
2023/07/19 12:33:41;;;;;;;6.50;5.40;;;;;;;;;;9985112;28;20102;-46
2023/07/19 12:38:33;;;;;;;6.57;5.97;;;;;;;;;;9984527;28;20251;-46
2023/07/19 12:43:25;;;;;;;6.47;5.85;;;;;;;;;;9984215;28;20125;-44
2023/07/19 12:48:17;;;;;;;6.05;5.45;;;;;;;;;;9984773;28;20101;-50
2023/07/19 12:53:09;;;;;;;6.05;5.53;;;;;;;;;;9983776;28;20219;-46
2023/07/19 12:58:01;;;;;;;7.30;6.60;;;;;;;;;;9984969;28;20042;-44
2023/07/19 13:02:53;;;;;;;6.28;5.68;;;;;;;;;;9984479;28;20042;-45
2023/07/19 13:07:45;;;;;;;5.93;5.38;;;;;;;;;;9983098;28;20046;-45
2023/07/19 13:12:37;;;;;;;5.32;4.82;;;;;;;;;;9982374;28;20396;-46
2023/07/19 13:17:29;;;;;;;6.15;5.55;;;;;;;;;;9985379;28;20424;-46
2023/07/19 13:22:21;;;;;;;6.43;5.80;;;;;;;;;;9983835;28;20097;-45
2023/07/19 13:27:12;;;;;;;6.25;5.65;;;;;;;;;;9983253;28;20133;-45
2023/07/19 13:32:05;;;;;;;6.85;6.15;;;;;;;;;;9983919;28;20038;-45
2023/07/19 13:36:59;;;;;;;5.65;5.18;;;;;;;;;;9987085;28;20483;-45
2023/07/19 13:41:57;;;;;;;6.22;5.68;;;;;;;;;;9989256;28;20061;-46
2023/07/19 13:46:49;;;;;;;6.00;5.47;;;;;;;;;;9990276;28;20042;-45
2023/07/19 13:51:41;;;;;;;6.97;6.38;;;;;;;;;;9989865;28;20476;-46
2023/07/19 13:56:33;;;;;;;5.47;4.97;;;;;;;;;;9990813;28;20050;-45
2023/07/19 14:01:25;;;;;;;5.55;5.15;;;;;;;;;;9989350;28;20124;-45
2023/07/19 14:06:17;;;;;;;7.50;5.78;;;;;;;;;;9990391;28;20042;-46
2023/07/19 14:11:09;;;;;;;6.40;5.90;;;;;;;;;;9988245;28;20050;-46
2023/07/19 14:16:01;;;;;;;5.43;4.93;;;;;;;;;;9988763;28;20070;-46
2023/07/19 14:20:56;;;;;;;6.68;5.95;;;;;;;;;;9950118;28;20113;-44
2023/07/19 14:25:48;;;;;;;5.65;5.10;;;;;;;;;;9958654;28;20070;-45
2023/07/19 14:30:40;;;;;;;6.15;5.57;;;;;;;;;;9990761;28;20129;-45
2023/07/19 14:35:33;;;;;;;5.63;5.07;;;;;;;;;;9990222;28;20556;-44
2023/07/19 14:40:25;;;;;;;5.93;5.40;;;;;;;;;;9987029;28;20046;-47
2023/07/19 14:45:19;;;;;;;7.07;6.38;;;;;;;;;;9971142;28;20050;-46
2023/07/19 14:50:11;;;;;;;7.25;5.80;;;;;;;;;;9987186;28;20068;-46
2023/07/19 14:55:04;;;;;;;6.18;5.68;;;;;;;;;;9987208;28;20042;-45
2023/07/19 14:59:56;;;;;;;6.53;5.93;;;;;;;;;;9987388;28;20387;-45
2023/07/19 15:05:03;;;;;;;5.65;5.13;;;;;;;;;;9987283;28;20051;-44
2023/07/19 15:09:54;;;;;;;7.45;5.10;;;;;;;;;;9967351;28;20050;-45
2023/07/19 15:14:46;;;;;;;6.47;5.82;;;;;;;;;;9987107;28;20126;-47
2023/07/19 15:19:38;;;;;;;7.00;6.30;;;;;;;;;;9985726;28;20105;-47
2023/07/19 15:24:30;;;;;;;5.68;5.18;;;;;;;;;;9985493;28;20048;-47
2023/07/19 15:29:22;;;;;;;7.65;6.85;;;;;;;;;;9988782;28;20082;-47
2023/07/19 15:34:14;;;;;;;6.13;5.63;;;;;;;;;;9985850;28;20435;-45
2023/07/19 15:39:06;;;;;;;5.75;5.30;;;;;;;;;;9985966;28;20061;-45
2023/07/19 15:43:58;;;;;;;5.55;4.68;;;;;;;;;;9984967;28;20056;-46
2023/07/19 15:48:50;;;;;;;5.40;4.95;;;;;;;;;;9985651;28;20046;-46
2023/07/19 15:53:42;;;;;;;6.90;5.20;;;;;;;;;;9985398;28;20042;-46
2023/07/19 15:58:35;;;;;;;5.25;4.80;;;;;;;;;;9985457;28;20071;-47
2023/07/19 16:03:27;;;;;;;5.93;5.43;;;;;;;;;;9983877;28;20073;-46
2023/07/19 16:08:21;;;;;;;5.82;5.22;;;;;;;;;;9984489;28;20054;-45
2023/07/19 16:13:13;;;;;;;5.88;5.38;;;;;;;;;;9983319;28;20108;-46
2023/07/19 16:18:05;;;;;;;5.28;4.88;;;;;;;;;;9984522;28;20053;-45
2023/07/19 16:22:57;;;;;;;5.70;5.20;;;;;;;;;;9981650;28;20109;-45
2023/07/19 16:27:49;;;;;;;5.72;5.22;;;;;;;;;;9972041;28;20366;-45
2023/07/19 16:32:41;;;;;;;6.05;5.07;;;;;;;;;;9963003;28;20053;-48
2023/07/19 16:37:33;;;;;;;6.13;5.47;;;;;;;;;;9996727;28;20393;-45
2023/07/19 16:42:25;;;;;;;5.95;5.45;;;;;;;;;;9966867;28;20451;-47
2023/07/19 16:47:17;;;;;;;6.18;5.57;;;;;;;;;;9984617;28;20046;-45
2023/07/19 16:52:11;;;;;;;13.57;5.85;;;;;;;;;;9970032;28;20473;-44
2023/07/19 16:57:04;;;;;;;35.92;12.95;;;;;;;;;;10020268;28;20049;-44
2023/07/19 17:01:56;;;;;;;34.03;12.13;;;;;;;;;;10012291;28;20614;-47
2023/07/19 17:06:47;;;;;;;32.45;11.15;;;;;;;;;;9981384;28;20122;-47
2023/07/19 17:11:39;;;;;;;26.90;10.73;;;;;;;;;;9982294;28;20058;-45
2023/07/19 17:16:31;;;;;;;23.90;10.05;;;;;;;;;;9990535;28;20181;-45
2023/07/19 17:21:23;;;;;;;28.60;8.98;;;;;;;;;;9991640;28;20387;-46
2023/07/19 17:26:15;;;;;;;23.88;9.32;;;;;;;;;;9990569;28;20074;-44
2023/07/19 17:31:07;;;;;;;19.65;9.68;;;;;;;;;;9990155;28;20050;-46
2023/07/19 17:35:59;;;;;;;21.48;9.23;;;;;;;;;;9973606;28;20044;-47
2023/07/19 17:40:50;;;;;;;17.52;8.95;;;;;;;;;;9992442;28;20451;-44
2023/07/19 17:45:42;;;;;;;17.50;9.73;;;;;;;;;;9992051;28;20050;-47
2023/07/19 17:50:34;;;;;;;17.45;8.10;;;;;;;;;;9989778;28;20042;-47
2023/07/19 17:55:26;;;;;;;26.52;9.68;;;;;;;;;;9988950;28;20113;-44
2023/07/19 18:00:18;;;;;;;12.02;8.00;;;;;;;;;;9990295;28;20781;-44
2023/07/19 18:05:10;;;;;;;16.85;8.10;;;;;;;;;;9989630;28;20495;-45
2023/07/19 18:10:02;;;;;;;19.58;8.00;;;;;;;;;;9986939;28;20477;-47
2023/07/19 18:14:54;;;;;;;19.50;8.77;;;;;;;;;;9985978;28;20427;-46
2023/07/19 18:19:46;;;;;;;11.23;7.05;;;;;;;;;;9988619;28;20499;-45
2023/07/19 18:24:37;;;;;;;20.88;8.30;;;;;;;;;;9986977;28;20138;-46
2023/07/19 18:29:29;;;;;;;12.98;6.95;;;;;;;;;;9989238;28;20047;-46
2023/07/19 18:34:21;;;;;;;13.77;7.80;;;;;;;;;;9989452;28;20038;-46
2023/07/19 18:39:13;;;;;;;13.98;7.22;;;;;;;;;;9982318;28;20061;-45
2023/07/19 18:44:05;;;;;;;10.05;6.65;;;;;;;;;;9984105;28;20073;-45
2023/07/19 18:48:57;;;;;;;14.32;7.35;;;;;;;;;;9987559;28;20149;-45
2023/07/19 18:53:50;;;;;;;16.80;7.68;;;;;;;;;;9977422;28;20058;-46
2023/07/19 18:58:42;;;;;;;14.52;7.43;;;;;;;;;;9987376;28;20065;-45
2023/07/19 19:03:34;;;;;;;12.05;6.93;;;;;;;;;;9986337;28;20476;-44
2023/07/19 19:08:27;;;;;;;18.77;7.20;;;;;;;;;;9987711;28;20046;-47
2023/07/19 19:13:19;;;;;;;11.07;6.35;;;;;;;;;;9987833;28;20476;-45
2023/07/19 19:18:11;;;;;;;16.55;6.68;;;;;;;;;;9986278;28;20050;-45
2023/07/19 19:23:03;;;;;;;8.98;5.95;;;;;;;;;;9984785;28;20053;-45
2023/07/19 19:27:56;;;;;;;13.32;6.80;;;;;;;;;;9985054;28;20061;-49
2023/07/19 19:32:48;;;;;;;9.40;6.10;;;;;;;;;;9980707;28;20544;-49
2023/07/19 19:37:40;;;;;;;13.07;8.07;;;;;;;;;;9980742;28;20042;-44
2023/07/19 19:42:32;;;;;;;12.45;6.43;;;;;;;;;;9975412;28;20078;-45
2023/07/19 19:47:24;;;;;;;13.57;6.53;;;;;;;;;;9980834;28;20054;-47
2023/07/19 19:52:16;;;;;;;10.95;6.05;;;;;;;;;;9987916;28;20048;-45
2023/07/19 19:57:10;;;;;;;10.23;7.03;;;;;;;;;;9986552;28;20077;-44
2023/07/19 20:02:04;;;;;;;10.52;6.65;;;;;;;;;;9987223;28;20504;-43
2023/07/19 20:06:59;;;;;;;15.25;6.80;;;;;;;;;;9971542;28;20057;-44
2023/07/19 20:11:51;;;;;;;15.18;8.57;;;;;;;;;;9985954;28;20137;-46
2023/07/19 20:16:42;;;;;;;13.40;6.05;;;;;;;;;;9969531;28;20053;-44
2023/07/19 20:21:35;;;;;;;13.35;5.85;;;;;;;;;;9987413;28;20050;-45
2023/07/19 20:26:27;;;;;;;12.27;5.70;;;;;;;;;;9982171;28;20129;-47
2023/07/19 20:31:19;;;;;;;12.25;6.53;;;;;;;;;;9985841;28;20104;-44
2023/07/19 20:36:13;;;;;;;13.80;7.43;;;;;;;;;;9983062;28;20042;-45
2023/07/19 20:41:08;;;;;;;10.60;5.90;;;;;;;;;;9984000;28;20081;-45
2023/07/19 20:46:03;;;;;;;11.45;6.25;;;;;;;;;;9985913;28;20050;-48
2023/07/19 20:50:58;;;;;;;9.43;6.15;;;;;;;;;;9991080;28;20057;-46
2023/07/19 20:55:50;;;;;;;15.43;5.82;;;;;;;;;;9973828;28;20050;-48
2023/07/19 21:00:42;;;;;;;9.45;5.38;;;;;;;;;;9990299;28;20050;-47
2023/07/19 21:05:34;;;;;;;9.55;6.05;;;;;;;;;;9992790;28;20046;-45
2023/07/19 21:10:26;;;;;;;11.63;5.35;;;;;;;;;;9991284;28;20138;-47
2023/07/19 21:15:18;;;;;;;9.57;4.85;;;;;;;;;;9991507;28;20042;-45
2023/07/19 21:20:10;;;;;;;8.63;4.80;;;;;;;;;;9991242;28;20050;-46
2023/07/19 21:25:02;;;;;;;11.95;6.20;;;;;;;;;;9991801;28;20464;-45
2023/07/19 21:29:57;;;;;;;8.55;5.47;;;;;;;;;;9990097;28;20424;-47
2023/07/19 21:34:49;;;;;;;9.75;6.10;;;;;;;;;;9989003;28;20046;-47
2023/07/19 21:39:41;;;;;;;7.97;5.05;;;;;;;;;;9990030;28;20074;-46
2023/07/19 21:44:32;;;;;;;8.20;5.22;;;;;;;;;;9990893;28;20532;-43
2023/07/19 21:49:24;;;;;;;7.63;5.25;;;;;;;;;;9973199;28;20168;-47
2023/07/19 21:54:17;;;;;;;11.05;5.50;;;;;;;;;;9990664;28;20085;-45
2023/07/19 21:59:09;;;;;;;10.18;4.80;;;;;;;;;;9989044;28;20471;-48
2023/07/19 22:04:01;;;;;;;7.35;5.03;;;;;;;;;;9990705;28;20129;-49
2023/07/19 22:08:54;;;;;;;10.57;5.43;;;;;;;;;;9987364;28;20108;-47
2023/07/19 22:13:45;;;;;;;7.95;4.95;;;;;;;;;;9987474;28;20045;-48
2023/07/19 22:18:38;;;;;;;8.02;4.78;;;;;;;;;;9988990;28;20500;-47
2023/07/19 22:23:30;;;;;;;6.88;5.43;;;;;;;;;;9987870;28;20529;-47
2023/07/19 22:28:22;;;;;;;6.45;4.75;;;;;;;;;;9949858;28;20070;-47
2023/07/19 22:33:14;;;;;;;6.25;4.25;;;;;;;;;;9988826;28;20136;-48
2023/07/19 22:38:08;;;;;;;6.55;4.25;;;;;;;;;;9989051;28;20069;-47
2023/07/19 22:43:01;;;;;;;5.97;4.30;;;;;;;;;;9988352;28;20085;-46
2023/07/19 22:47:53;;;;;;;7.85;5.10;;;;;;;;;;9987131;28;20085;-47
2023/07/19 22:52:52;;;;;;;9.05;4.95;;;;;;;;;;9988789;28;20046;-48
2023/07/19 22:57:44;;;;;;;7.75;4.60;;;;;;;;;;9987757;28;20053;-45
2023/07/19 23:02:36;;;;;;;5.88;4.72;;;;;;;;;;9986915;28;20483;-44
2023/07/19 23:07:28;;;;;;;8.85;5.35;;;;;;;;;;9987144;28;20153;-44
2023/07/19 23:12:20;;;;;;;6.00;5.07;;;;;;;;;;9987611;28;20137;-45
2023/07/19 23:17:12;;;;;;;6.50;5.05;;;;;;;;;;9984253;28;20046;-45
2023/07/19 23:22:05;;;;;;;5.80;4.60;;;;;;;;;;9985669;28;20483;-47
2023/07/19 23:26:57;;;;;;;6.03;4.72;;;;;;;;;;9989836;28;20081;-46
2023/07/19 23:31:50;;;;;;;6.45;4.63;;;;;;;;;;9988800;28;20053;-46
2023/07/19 23:36:44;;;;;;;6.00;5.40;;;;;;;;;;9988402;28;20069;-47
2023/07/19 23:41:36;;;;;;;9.45;4.65;;;;;;;;;;9987887;28;20082;-47
2023/07/19 23:46:28;;;;;;;4.57;4.00;;;;;;;;;;9988998;28;20038;-47
2023/07/19 23:51:20;;;;;;;8.30;4.18;;;;;;;;;;9988261;28;20038;-48
2023/07/19 23:56:12;;;;;;;8.60;5.47;;;;;;;;;;9987914;28;20056;-49
